createdAt,value
2022-11-29T00:01:38.143Z,15.23
2022-11-29T00:04:05.893Z,14.80
2022-11-29T00:06:34.388Z,15.32
2022-11-29T00:09:06.733Z,15.93
2022-11-29T00:11:56.407Z,16.20
2022-11-29T00:14:25.481Z,14.80
2022-11-29T00:17:01.928Z,15.18
2022-11-29T00:19:34.113Z,15.57
2022-11-29T00:22:04.620Z,14.23
2022-11-29T00:24:32.674Z,14.77
2022-11-29T00:27:01.106Z,13.98
2022-11-29T00:29:30.057Z,13.98
2022-11-29T00:32:00.969Z,13.77
2022-11-29T00:34:28.793Z,13.13
2022-11-29T00:36:56.161Z,12.50
2022-11-29T00:39:23.554Z,12.50
2022-11-29T00:41:50.983Z,13.23
2022-11-29T00:44:20.451Z,12.82
2022-11-29T00:46:48.701Z,12.00
2022-11-29T00:49:16.304Z,12.23
2022-11-29T00:51:43.752Z,11.52
2022-11-29T00:54:11.137Z,11.95
2022-11-29T00:56:38.604Z,12.35
2022-11-29T00:59:08.896Z,12.32
2022-11-29T01:01:36.378Z,11.80
2022-11-29T01:04:04.096Z,11.93
2022-11-29T01:06:31.508Z,11.30
2022-11-29T01:08:58.896Z,10.23
2022-11-29T01:11:27.590Z,12.30
2022-11-29T01:13:58.160Z,10.93
2022-11-29T01:16:27.127Z,10.98
2022-11-29T01:18:54.612Z,11.10
2022-11-29T01:21:24.170Z,10.63
2022-11-29T01:23:52.693Z,10.85
2022-11-29T01:26:23.908Z,10.95
2022-11-29T01:28:53.571Z,10.25
2022-11-29T01:31:24.610Z,10.02
2022-11-29T01:33:56.471Z,10.00
2022-11-29T01:38:52.291Z,10.05
2022-11-29T01:41:23.338Z,10.65
2022-11-29T01:44:07.459Z,9.30
2022-11-29T01:46:38.373Z,8.65
2022-11-29T01:49:15.072Z,9.15
2022-11-29T01:51:52.501Z,8.05
2022-11-29T01:54:20.651Z,8.30
2022-11-29T01:56:50.452Z,8.45
2022-11-29T01:59:22.048Z,8.20
2022-11-29T02:01:49.639Z,8.55
2022-11-29T02:04:18.075Z,8.50
2022-11-29T02:06:46.075Z,8.20
2022-11-29T02:09:19.745Z,8.48
2022-11-29T02:11:56.121Z,8.75
2022-11-29T02:14:41.718Z,8.48
2022-11-29T02:17:42.879Z,9.27
2022-11-29T02:20:25.345Z,10.02
2022-11-29T02:23:11.474Z,9.52
2022-11-29T02:25:42.946Z,9.20
2022-11-29T02:28:42.840Z,9.35
2022-11-29T02:31:44.612Z,9.55
2022-11-29T02:34:49.256Z,9.77
2022-11-29T02:37:22.566Z,9.25
2022-11-29T02:40:02.522Z,9.40
2022-11-29T02:42:56.742Z,10.27
2022-11-29T02:45:51.458Z,9.70
2022-11-29T02:48:43.374Z,10.05
2022-11-29T02:51:30.782Z,10.93
2022-11-29T02:54:03.851Z,11.05
2022-11-29T02:56:43.597Z,10.75
2022-11-29T02:59:45.601Z,11.60
2022-11-29T03:02:32.387Z,11.27
2022-11-29T03:05:15.336Z,10.43
2022-11-29T03:07:45.905Z,10.43
2022-11-29T03:10:34.790Z,11.45
2022-11-29T03:13:05.693Z,11.23
2022-11-29T03:15:41.360Z,10.30
2022-11-29T03:18:23.801Z,10.48
2022-11-29T03:21:09.748Z,11.05
2022-11-29T03:23:43.930Z,10.57
2022-11-29T03:26:17.884Z,11.32
2022-11-29T03:29:01.207Z,11.82
2022-11-29T03:31:36.474Z,10.55
2022-11-29T03:34:21.903Z,11.35
2022-11-29T03:37:01.036Z,11.63
2022-11-29T03:39:45.178Z,10.68
2022-11-29T03:42:26.522Z,10.10
2022-11-29T03:45:07.756Z,10.60
2022-11-29T03:47:51.502Z,11.48
2022-11-29T03:50:25.064Z,10.35
2022-11-29T03:52:56.996Z,10.88
2022-11-29T03:58:35.647Z,9.93
2022-11-29T04:01:22.161Z,9.88
2022-11-29T04:04:34.728Z,9.75
2022-11-29T04:07:13.446Z,9.45
2022-11-29T04:10:09.311Z,10.68
2022-11-29T04:13:15.142Z,9.95
2022-11-29T04:16:19.826Z,9.90
2022-11-29T04:19:11.905Z,9.82
2022-11-29T04:22:08.549Z,9.15
2022-11-29T04:25:03.838Z,9.70
2022-11-29T04:27:49.549Z,8.63
2022-11-29T04:30:22.936Z,9.07
2022-11-29T04:33:08.668Z,9.57
2022-11-29T04:36:01.091Z,9.82
2022-11-29T04:39:18.707Z,9.35
2022-11-29T04:41:49.126Z,8.77
2022-11-29T04:44:49.216Z,9.27
2022-11-29T04:47:47.460Z,9.02
2022-11-29T04:50:20.953Z,8.70
2022-11-29T04:53:07.865Z,7.65
2022-11-29T04:55:52.487Z,8.88
2022-11-29T04:58:19.799Z,8.57
2022-11-29T05:01:00.513Z,8.10
2022-11-29T05:04:26.243Z,8.43
2022-11-29T05:07:12.807Z,7.78
2022-11-29T05:09:46.544Z,8.68
2022-11-29T05:12:30.027Z,9.00
2022-11-29T05:15:22.215Z,7.85
2022-11-29T05:18:24.673Z,8.52
2022-11-29T05:21:14.317Z,7.70
2022-11-29T05:23:59.817Z,8.10
2022-11-29T05:26:55.268Z,8.52
2022-11-29T05:29:36.505Z,7.80
2022-11-29T05:32:25.606Z,7.57
2022-11-29T05:35:29.311Z,7.88
2022-11-29T05:38:21.734Z,8.07
2022-11-29T05:43:39.002Z,6.78
2022-11-29T05:46:16.110Z,8.13
2022-11-29T05:48:46.429Z,7.40
2022-11-29T05:51:30.965Z,7.80
2022-11-29T05:54:16.863Z,6.95
2022-11-29T05:57:06.265Z,7.68
2022-11-29T05:59:38.459Z,7.80
2022-11-29T06:02:21.075Z,8.32
2022-11-29T06:05:07.793Z,7.95
2022-11-29T06:07:51.688Z,7.45
2022-11-29T06:10:23.878Z,7.32
2022-11-29T06:13:18.843Z,7.53
2022-11-29T06:16:24.889Z,6.88
2022-11-29T06:19:19.809Z,8.25
2022-11-29T06:22:08.657Z,7.43
2022-11-29T06:25:02.712Z,7.57
2022-11-29T06:27:48.285Z,7.88
2022-11-29T06:30:20.864Z,7.35
2022-11-29T06:33:13.367Z,7.07
2022-11-29T06:35:53.521Z,7.32
2022-11-29T06:38:29.609Z,7.25
2022-11-29T06:41:01.795Z,7.13
2022-11-29T06:43:30.900Z,6.70
2022-11-29T06:46:14.324Z,7.10
2022-11-29T06:49:02.111Z,7.15
2022-11-29T06:51:39.196Z,7.00
2022-11-29T06:54:23.883Z,7.60
2022-11-29T06:57:15.329Z,6.93
2022-11-29T07:00:07.005Z,7.25
2022-11-29T07:02:46.185Z,6.65
2022-11-29T07:05:19.670Z,6.95
2022-11-29T07:07:48.555Z,6.57
2022-11-29T07:10:19.070Z,6.45
2022-11-29T07:12:47.853Z,6.50
2022-11-29T07:15:21.845Z,6.35
2022-11-29T07:18:17.397Z,6.60
2022-11-29T07:20:53.703Z,6.47
2022-11-29T07:23:36.674Z,6.38
2022-11-29T07:26:37.190Z,6.82
2022-11-29T07:29:39.537Z,6.55
2022-11-29T07:34:48.540Z,6.50
2022-11-29T07:37:24.648Z,8.52
2022-11-29T07:40:23.574Z,9.85
2022-11-29T07:43:20.138Z,8.00
2022-11-29T07:45:47.731Z,6.95
2022-11-29T07:48:16.957Z,7.32
2022-11-29T07:50:45.241Z,7.38
2022-11-29T07:53:17.800Z,7.10
2022-11-29T07:55:46.182Z,7.28
2022-11-29T07:58:16.709Z,7.18
2022-11-29T08:00:45.187Z,7.35
2022-11-29T08:03:12.943Z,7.03
2022-11-29T08:05:40.537Z,6.70
2022-11-29T08:08:08.205Z,6.78
2022-11-29T08:10:35.669Z,6.65
2022-11-29T08:13:03.268Z,6.45
2022-11-29T08:15:30.645Z,6.70
2022-11-29T08:17:57.977Z,6.47
2022-11-29T08:20:25.392Z,6.95
2022-11-29T08:22:58.593Z,6.53
2022-11-29T08:25:26.965Z,7.03
2022-11-29T08:27:54.972Z,7.10
2022-11-29T08:30:23.395Z,7.28
2022-11-29T08:32:51.961Z,6.57
2022-11-29T08:35:21.474Z,7.05
2022-11-29T08:37:53.891Z,6.75
2022-11-29T08:40:21.474Z,5.95
2022-11-29T08:42:48.798Z,6.75
2022-11-29T08:45:17.011Z,6.50
2022-11-29T08:47:47.708Z,7.45
2022-11-29T08:50:17.989Z,7.22
2022-11-29T08:53:05.895Z,6.90
2022-11-29T08:55:36.503Z,6.80
2022-11-29T08:58:07.280Z,6.75
2022-11-29T09:00:35.049Z,6.15
2022-11-29T09:03:22.128Z,6.40
2022-11-29T09:05:50.142Z,6.85
2022-11-29T09:08:17.934Z,6.65
2022-11-29T09:10:45.949Z,7.22
2022-11-29T09:13:15.298Z,7.10
2022-11-29T09:15:43.657Z,6.97
2022-11-29T09:18:11.550Z,7.30
2022-11-29T09:20:42.806Z,7.38
2022-11-29T09:23:11.206Z,7.18
2022-11-29T09:25:38.549Z,7.65
2022-11-29T09:28:06.235Z,7.63
2022-11-29T09:30:35.090Z,7.45
2022-11-29T09:33:05.620Z,6.78
2022-11-29T09:35:52.121Z,7.60
2022-11-29T09:38:19.422Z,7.00
2022-11-29T09:41:42.986Z,7.10
2022-11-29T09:44:59.308Z,6.07
2022-11-29T09:47:55.870Z,7.03
2022-11-29T09:50:23.300Z,6.43
2022-11-29T09:52:59.366Z,6.68
2022-11-29T09:56:01.033Z,6.90
2022-11-29T09:58:53.599Z,6.30
2022-11-29T10:01:26.630Z,5.72
2022-11-29T10:04:00.441Z,6.60
2022-11-29T10:06:39.706Z,6.00
2022-11-29T10:09:07.172Z,6.57
2022-11-29T10:12:04.091Z,5.82
2022-11-29T10:14:35.884Z,6.15
2022-11-29T10:17:18.262Z,6.30
2022-11-29T10:19:55.655Z,6.30
2022-11-29T10:22:31.574Z,5.82
2022-11-29T10:25:02.594Z,5.47
2022-11-29T10:27:30.088Z,5.80
2022-11-29T10:30:00.937Z,6.13
2022-11-29T10:32:32.184Z,5.97
2022-11-29T10:35:00.912Z,5.82
2022-11-29T10:37:32.879Z,5.85
2022-11-29T10:42:50.267Z,5.60
2022-11-29T10:45:29.393Z,5.30
2022-11-29T10:48:02.361Z,5.70
2022-11-29T10:50:31.989Z,6.25
2022-11-29T10:53:08.151Z,5.25
2022-11-29T10:56:00.477Z,5.90
2022-11-29T11:01:01.284Z,5.53
2022-11-29T11:03:37.446Z,6.30
2022-11-29T11:06:15.802Z,6.30
2022-11-29T11:08:51.141Z,6.43
2022-11-29T11:11:31.378Z,6.07
2022-11-29T11:14:18.311Z,6.20
2022-11-29T11:16:46.127Z,7.82
2022-11-29T11:19:39.825Z,7.13
2022-11-29T11:22:07.317Z,8.43
2022-11-29T11:24:40.012Z,8.82
2022-11-29T11:27:07.730Z,9.50
2022-11-29T11:29:39.378Z,9.68
2022-11-29T11:32:18.627Z,10.18
2022-11-29T11:34:56.443Z,10.25
2022-11-29T11:37:29.544Z,10.35
2022-11-29T11:39:59.786Z,10.23
2022-11-29T11:42:38.943Z,9.93
2022-11-29T11:45:12.554Z,10.30
2022-11-29T11:47:46.465Z,10.20
2022-11-29T11:50:27.973Z,10.18
2022-11-29T11:53:02.233Z,9.73
2022-11-29T11:55:32.411Z,10.20
2022-11-29T11:58:14.968Z,9.60
2022-11-29T12:01:09.912Z,9.50
2022-11-29T12:04:18.710Z,9.82
2022-11-29T12:06:56.677Z,11.48
2022-11-29T12:09:42.232Z,13.52
2022-11-29T12:12:18.046Z,9.73
2022-11-29T12:15:13.033Z,10.05
2022-11-29T12:17:46.104Z,9.15
2022-11-29T12:20:22.705Z,9.82
2022-11-29T12:23:11.371Z,9.57
2022-11-29T12:25:50.977Z,8.77
2022-11-29T12:28:20.883Z,9.18
2022-11-29T12:31:21.661Z,9.63
2022-11-29T12:33:56.038Z,9.00
2022-11-29T12:36:42.386Z,7.97
2022-11-29T12:39:23.212Z,8.60
2022-11-29T12:42:24.663Z,8.55
2022-11-29T12:45:23.915Z,8.65
2022-11-29T12:47:53.974Z,8.63
2022-11-29T12:50:39.604Z,7.70
2022-11-29T12:53:40.698Z,7.65
2022-11-29T12:56:11.162Z,7.88
2022-11-29T12:59:09.629Z,7.65
2022-11-29T13:01:49.221Z,7.55
2022-11-29T13:04:38.809Z,8.77
2022-11-29T13:07:15.875Z,9.02
2022-11-29T13:09:58.554Z,9.32
2022-11-29T13:13:00.778Z,8.48
2022-11-29T13:15:38.063Z,7.75
2022-11-29T13:18:17.885Z,7.78
2022-11-29T13:20:57.128Z,7.75
2022-11-29T13:23:45.731Z,8.35
2022-11-29T13:26:22.119Z,7.55
2022-11-29T13:28:50.668Z,7.68
2022-11-29T13:31:22.640Z,8.50
2022-11-29T13:36:49.849Z,8.40
2022-11-29T13:39:43.916Z,8.07
2022-11-29T13:42:40.468Z,8.70
2022-11-29T13:45:28.259Z,7.85
2022-11-29T13:47:59.388Z,7.50
2022-11-29T13:50:45.489Z,8.80
2022-11-29T13:53:21.764Z,8.75
2022-11-29T13:56:01.802Z,8.40
2022-11-29T13:58:29.289Z,8.40
2022-11-29T14:01:02.580Z,8.52
2022-11-29T14:03:42.884Z,8.30
2022-11-29T14:06:33.001Z,8.45
2022-11-29T14:09:24.911Z,8.55
2022-11-29T14:11:59.418Z,8.70
2022-11-29T14:14:49.637Z,8.18
2022-11-29T14:17:48.585Z,8.60
2022-11-29T14:20:25.143Z,8.40
2022-11-29T14:23:04.466Z,8.32
2022-11-29T14:25:55.252Z,8.15
2022-11-29T14:28:22.532Z,7.95
2022-11-29T14:30:57.372Z,8.02
2022-11-29T14:33:47.480Z,8.65
2022-11-29T14:36:14.673Z,8.25
2022-11-29T14:38:51.272Z,9.05
2022-11-29T14:41:40.401Z,7.32
2022-11-29T14:44:32.972Z,7.90
2022-11-29T14:47:21.565Z,7.70
2022-11-29T14:49:49.026Z,8.32
2022-11-29T14:52:24.312Z,7.65
2022-11-29T14:55:05.672Z,8.60
2022-11-29T14:57:48.297Z,8.35
2022-11-29T15:00:19.575Z,8.23
2022-11-29T15:03:01.422Z,8.23
2022-11-29T15:05:33.368Z,7.90
2022-11-29T15:10:35.665Z,8.48
2022-11-29T15:15:37.156Z,8.75
2022-11-29T15:18:27.308Z,8.98
2022-11-29T15:21:25.228Z,8.07
2022-11-29T15:24:01.590Z,8.93
2022-11-29T15:26:29.194Z,8.52
2022-11-29T15:29:13.808Z,8.60
2022-11-29T15:31:43.179Z,9.90
2022-11-29T15:34:23.468Z,18.08
2022-11-29T15:36:52.810Z,9.07
2022-11-29T15:39:28.788Z,8.93
2022-11-29T15:42:14.021Z,8.68
2022-11-29T15:44:46.292Z,9.05
2022-11-29T15:47:22.584Z,9.05
2022-11-29T15:49:51.542Z,8.82
2022-11-29T15:52:35.840Z,9.70
2022-11-29T15:55:07.543Z,8.95
2022-11-29T15:57:37.827Z,9.40
2022-11-29T16:00:16.861Z,10.35
2022-11-29T16:02:52.108Z,10.18
2022-11-29T16:05:26.757Z,11.15
2022-11-29T16:07:58.379Z,11.00
2022-11-29T16:10:52.498Z,10.48
2022-11-29T16:13:32.687Z,10.18
2022-11-29T16:16:12.352Z,10.30
2022-11-29T16:18:42.099Z,9.95
2022-11-29T16:21:29.886Z,10.23
2022-11-29T16:23:58.386Z,9.93
2022-11-29T16:26:39.539Z,9.70
2022-11-29T16:29:21.135Z,9.50
2022-11-29T16:31:48.616Z,9.40
2022-11-29T16:34:24.733Z,8.98
2022-11-29T16:37:02.196Z,8.45
2022-11-29T16:39:30.723Z,9.13
2022-11-29T16:42:30.036Z,9.27
2022-11-29T16:45:35.027Z,8.82
2022-11-29T16:48:14.181Z,9.73
2022-11-29T16:50:41.533Z,9.98
2022-11-29T16:53:35.710Z,9.80
2022-11-29T16:56:04.874Z,9.70
2022-11-29T16:58:35.483Z,9.98
2022-11-29T17:01:22.182Z,10.25
2022-11-29T17:03:49.585Z,10.13
2022-11-29T17:06:24.651Z,10.63
2022-11-29T17:08:53.696Z,10.80
2022-11-29T17:11:21.637Z,10.60
2022-11-29T17:13:50.271Z,10.05
2022-11-29T17:16:22.427Z,10.00
2022-11-29T17:18:50.194Z,10.80
2022-11-29T17:21:21.952Z,10.05
2022-11-29T17:23:49.531Z,10.05
2022-11-29T17:26:17.909Z,10.88
2022-11-29T17:28:46.750Z,10.55
2022-11-29T17:31:19.717Z,10.30
2022-11-29T17:33:47.504Z,11.07
2022-11-29T17:36:17.727Z,10.52
2022-11-29T17:38:48.186Z,10.15
2022-11-29T17:41:22.660Z,10.55
2022-11-29T17:43:51.612Z,10.57
2022-11-29T17:46:23.979Z,9.95
2022-11-29T17:48:52.236Z,10.50
2022-11-29T17:51:50.482Z,10.05
2022-11-29T17:54:09.545Z,11.30
2022-11-29T17:56:37.095Z,10.77
2022-11-29T17:59:04.829Z,11.05
2022-11-29T18:01:34.049Z,10.63
2022-11-29T18:04:06.398Z,10.80
2022-11-29T18:06:38.588Z,11.10
2022-11-29T18:09:08.613Z,11.18
2022-11-29T18:11:45.327Z,13.30
2022-11-29T18:14:17.889Z,12.10
2022-11-29T18:16:45.764Z,11.95
2022-11-29T18:19:16.086Z,11.00
2022-11-29T18:21:43.583Z,11.80
2022-11-29T18:24:11.154Z,11.77
2022-11-29T18:26:39.479Z,11.77
2022-11-29T18:29:07.497Z,13.30
2022-11-29T18:31:37.086Z,13.23
2022-11-29T18:34:12.988Z,15.45
2022-11-29T18:36:45.927Z,13.98
2022-11-29T18:39:20.177Z,14.98
2022-11-29T18:41:49.505Z,12.52
2022-11-29T18:44:19.570Z,14.15
2022-11-29T18:46:47.555Z,14.95
2022-11-29T18:49:17.419Z,14.18
2022-11-29T18:51:46.282Z,14.60
2022-11-29T18:54:15.736Z,13.80
2022-11-29T18:56:44.706Z,13.52
2022-11-29T18:59:17.300Z,13.40
2022-11-29T19:01:47.591Z,14.10
2022-11-29T19:04:20.666Z,14.35
2022-11-29T19:06:48.835Z,14.82
2022-11-29T19:09:20.836Z,13.95
2022-11-29T19:11:51.581Z,14.45
2022-11-29T19:14:19.668Z,14.50
2022-11-29T19:16:48.763Z,15.45
2022-11-29T19:19:18.576Z,15.43
2022-11-29T19:21:46.133Z,14.48
2022-11-29T19:24:15.708Z,14.02
2022-11-29T19:26:45.191Z,14.25
2022-11-29T19:29:16.349Z,13.75
2022-11-29T19:31:44.586Z,15.60
2022-11-29T19:34:11.997Z,13.40
2022-11-29T19:36:44.160Z,12.95
2022-11-29T19:39:14.432Z,13.50
2022-11-29T19:41:44.253Z,13.70
2022-11-29T19:44:12.604Z,14.73
2022-11-29T19:46:43.239Z,14.38
2022-11-29T19:49:11.267Z,14.20
2022-11-29T19:51:38.707Z,14.93
2022-11-29T19:54:08.240Z,14.85
2022-11-29T19:56:35.957Z,14.93
2022-11-29T19:59:03.403Z,12.50
2022-11-29T20:01:39.707Z,12.65
2022-11-29T20:04:09.754Z,12.20
2022-11-29T20:06:37.308Z,12.90
2022-11-29T20:09:05.062Z,12.93
2022-11-29T20:11:32.451Z,12.95
2022-11-29T20:14:01.529Z,11.70
2022-11-29T20:16:30.688Z,12.80
2022-11-29T20:18:59.055Z,11.85
2022-11-29T20:21:28.963Z,12.10
2022-11-29T20:23:58.481Z,12.45
2022-11-29T20:26:27.381Z,12.23
2022-11-29T20:28:55.107Z,12.23
2022-11-29T20:31:23.450Z,11.73
2022-11-29T20:33:53.000Z,11.65
2022-11-29T20:36:39.298Z,13.25
2022-11-29T20:39:15.866Z,12.23
2022-11-29T20:41:49.250Z,12.13
2022-11-29T20:44:20.925Z,12.00
2022-11-29T20:46:48.475Z,13.25
2022-11-29T20:49:17.335Z,11.18
2022-11-29T20:51:55.439Z,12.88
2022-11-29T20:54:22.908Z,11.45
2022-11-29T20:56:50.235Z,11.45
2022-11-29T20:59:17.639Z,11.10
2022-11-29T21:01:44.979Z,11.80
2022-11-29T21:04:12.386Z,11.05
2022-11-29T21:06:39.900Z,10.95
2022-11-29T21:09:08.672Z,11.43
2022-11-29T21:11:37.679Z,10.93
2022-11-29T21:14:07.388Z,10.52
2022-11-29T21:16:35.075Z,11.50
2022-11-29T21:19:02.952Z,11.52
2022-11-29T21:21:49.233Z,11.95
2022-11-29T21:24:43.017Z,12.57
2022-11-29T21:27:14.361Z,12.32
2022-11-29T21:29:42.130Z,12.60
2022-11-29T21:32:20.337Z,12.73
2022-11-29T21:34:48.268Z,13.18
2022-11-29T21:37:18.313Z,12.73
2022-11-29T21:39:47.390Z,11.95
2022-11-29T21:42:14.856Z,10.70
2022-11-29T21:44:43.946Z,11.68
2022-11-29T21:47:11.856Z,11.30
2022-11-29T21:49:39.942Z,11.73
2022-11-29T21:52:07.394Z,11.32
2022-11-29T21:54:37.418Z,11.13
2022-11-29T21:57:05.195Z,11.13
2022-11-29T21:59:32.635Z,12.23
2022-11-29T22:02:00.045Z,12.02
2022-11-29T22:04:27.994Z,12.27
2022-11-29T22:06:55.328Z,12.05
2022-11-29T22:09:22.721Z,11.77
2022-11-29T22:11:50.087Z,12.38
2022-11-29T22:14:20.242Z,12.63
2022-11-29T22:16:56.382Z,12.93
2022-11-29T22:19:26.717Z,11.98
2022-11-29T22:21:57.231Z,13.85
2022-11-29T22:24:27.580Z,14.18
2022-11-29T22:26:59.443Z,16.47
2022-11-29T22:29:26.802Z,12.60
2022-11-29T22:31:56.296Z,13.10
2022-11-29T22:34:26.936Z,12.75
2022-11-29T22:36:54.541Z,12.30
2022-11-29T22:39:24.127Z,13.98
2022-11-29T22:41:54.762Z,11.45
2022-11-29T22:44:23.623Z,12.63
2022-11-29T22:46:52.044Z,12.30
2022-11-29T22:49:19.742Z,11.82
2022-11-29T22:51:47.969Z,11.52
2022-11-29T22:54:16.478Z,12.45
2022-11-29T22:56:45.486Z,12.30
2022-11-29T22:59:12.980Z,11.93
2022-11-29T23:01:41.631Z,12.45
2022-11-29T23:04:11.230Z,12.95
2022-11-29T23:06:42.300Z,12.40
2022-11-29T23:09:15.855Z,14.07
2022-11-29T23:11:44.813Z,12.90
2022-11-29T23:14:13.024Z,13.18
2022-11-29T23:16:40.626Z,13.43
2022-11-29T23:19:08.061Z,13.45
2022-11-29T23:21:38.334Z,14.20
2022-11-29T23:24:06.164Z,12.68
2022-11-29T23:26:40.091Z,13.07
2022-11-29T23:29:09.629Z,12.68
2022-11-29T23:31:37.339Z,13.25
2022-11-29T23:34:05.398Z,11.93
2022-11-29T23:36:33.429Z,12.30
2022-11-29T23:39:00.980Z,12.52
2022-11-29T23:41:28.379Z,12.38
2022-11-29T23:43:55.824Z,13.80
2022-11-29T23:46:24.265Z,12.25
2022-11-29T23:48:52.312Z,12.38
2022-11-29T23:51:20.280Z,12.40
2022-11-29T23:53:54.406Z,12.40
2022-11-29T23:56:22.432Z,13.45
2022-11-29T23:58:49.878Z,12.80
